createdAt,value
2023-10-22T00:01:16.316Z,12.93
2023-10-22T00:03:45.684Z,12.96
2023-10-22T00:06:15.011Z,12.53
2023-10-22T00:08:47.186Z,12.45
2023-10-22T00:11:27.035Z,12.40
2023-10-22T00:13:59.314Z,12.84
2023-10-22T00:16:30.675Z,12.87
2023-10-22T00:19:00.050Z,12.97
2023-10-22T00:21:29.456Z,12.97
2023-10-22T00:23:59.358Z,12.96
2023-10-22T00:26:31.018Z,12.89
2023-10-22T00:29:05.914Z,12.75
2023-10-22T00:31:57.833Z,12.75
2023-10-22T00:34:27.209Z,12.97
2023-10-22T00:36:56.697Z,12.81
2023-10-22T00:39:25.933Z,12.54
2023-10-22T00:42:05.145Z,12.47
2023-10-22T00:44:38.073Z,12.41
2023-10-22T00:47:08.631Z,12.36
2023-10-22T00:49:37.797Z,12.33
2023-10-22T00:52:08.429Z,12.91
2023-10-22T00:54:38.484Z,12.99
2023-10-22T00:57:10.316Z,13.04
2023-10-22T00:59:40.629Z,12.74
2023-10-22T01:02:13.505Z,12.61
2023-10-22T01:04:43.179Z,12.54
2023-10-22T01:07:13.702Z,12.72
2023-10-22T01:09:43.476Z,12.65
2023-10-22T01:12:13.066Z,13.03
2023-10-22T01:14:42.607Z,13.04
2023-10-22T01:17:11.754Z,12.75
2023-10-22T01:19:40.861Z,12.74
2023-10-22T01:22:09.988Z,12.65
2023-10-22T01:24:39.282Z,12.60
2023-10-22T01:27:09.171Z,12.60
2023-10-22T01:29:38.519Z,12.76
2023-10-22T01:32:12.477Z,12.75
2023-10-22T01:34:41.699Z,12.68
2023-10-22T01:37:10.877Z,12.75
2023-10-22T01:39:40.116Z,12.74
2023-10-22T01:42:09.337Z,12.82
2023-10-22T01:44:38.724Z,12.85
2023-10-22T01:47:12.794Z,12.46
2023-10-22T01:49:42.114Z,12.22
2023-10-22T01:52:18.842Z,12.56
2023-10-22T01:55:09.264Z,12.75
2023-10-22T01:57:39.200Z,12.85
2023-10-22T02:00:14.828Z,12.76
2023-10-22T02:02:44.881Z,12.70
2023-10-22T02:05:14.151Z,12.88
2023-10-22T02:07:43.220Z,12.90
2023-10-22T02:10:13.474Z,12.86
2023-10-22T02:12:42.815Z,12.92
2023-10-22T02:15:12.094Z,12.92
2023-10-22T02:17:42.184Z,12.93
2023-10-22T02:20:12.469Z,12.97
2023-10-22T02:22:44.901Z,12.86
2023-10-22T02:25:14.765Z,12.71
2023-10-22T02:27:44.151Z,12.65
2023-10-22T02:30:13.749Z,12.83
2023-10-22T02:32:42.945Z,12.67
2023-10-22T02:35:12.861Z,12.86
2023-10-22T02:37:42.176Z,12.56
2023-10-22T02:40:11.805Z,12.39
2023-10-22T02:42:40.764Z,12.74
2023-10-22T02:45:14.952Z,12.68
2023-10-22T02:47:44.182Z,12.17
2023-10-22T02:50:13.406Z,12.33
2023-10-22T02:52:42.517Z,12.51
2023-10-22T02:55:11.957Z,12.40
2023-10-22T02:57:41.434Z,12.52
2023-10-22T03:00:25.235Z,12.35
2023-10-22T03:03:04.223Z,12.33
2023-10-22T03:05:35.805Z,12.25
2023-10-22T03:08:13.249Z,12.33
2023-10-22T03:10:43.705Z,12.39
2023-10-22T03:13:17.110Z,12.58
2023-10-22T03:15:46.250Z,12.37
2023-10-22T03:18:15.934Z,12.37
2023-10-22T03:20:45.298Z,12.18
2023-10-22T03:23:14.956Z,12.19
2023-10-22T03:25:45.790Z,12.46
2023-10-22T03:28:15.094Z,12.55
2023-10-22T03:30:44.162Z,12.42
2023-10-22T03:33:15.576Z,12.49
2023-10-22T03:35:44.883Z,12.37
2023-10-22T03:38:14.046Z,12.34
2023-10-22T03:40:45.464Z,12.09
2023-10-22T03:43:14.678Z,12.09
2023-10-22T03:45:43.669Z,12.19
2023-10-22T03:48:12.889Z,12.26
2023-10-22T03:50:45.230Z,11.97
2023-10-22T03:53:17.423Z,12.03
2023-10-22T03:55:47.211Z,12.16
2023-10-22T03:58:21.329Z,12.18
2023-10-22T04:00:52.344Z,12.41
2023-10-22T04:03:21.782Z,12.33
2023-10-22T04:05:57.957Z,12.40
2023-10-22T04:08:28.122Z,12.31
2023-10-22T04:10:59.271Z,12.43
2023-10-22T04:13:30.922Z,12.32
2023-10-22T04:16:03.156Z,12.33
2023-10-22T04:18:32.378Z,12.18
2023-10-22T04:21:01.945Z,12.01
2023-10-22T04:23:33.983Z,12.02
2023-10-22T04:26:03.022Z,12.17
2023-10-22T04:28:32.199Z,12.13
2023-10-22T04:31:01.509Z,12.20
2023-10-22T04:33:32.786Z,12.34
2023-10-22T04:36:02.238Z,12.35
2023-10-22T04:38:32.447Z,12.33
2023-10-22T04:41:06.053Z,12.22
2023-10-22T04:43:37.653Z,12.29
2023-10-22T04:46:18.579Z,12.24
2023-10-22T04:48:47.647Z,12.08
2023-10-22T04:51:18.798Z,12.31
2023-10-22T04:53:47.905Z,12.43
2023-10-22T04:56:20.100Z,12.41
2023-10-22T04:58:49.435Z,12.32
2023-10-22T05:01:18.643Z,12.34
2023-10-22T05:04:05.768Z,12.40
2023-10-22T05:06:35.369Z,12.44
2023-10-22T05:09:04.999Z,12.42
2023-10-22T05:11:34.715Z,12.39
2023-10-22T05:14:07.732Z,12.27
2023-10-22T05:16:41.756Z,12.04
2023-10-22T05:19:11.189Z,12.14
2023-10-22T05:21:40.313Z,12.02
2023-10-22T05:24:11.936Z,11.97
2023-10-22T05:26:42.503Z,12.03
2023-10-22T05:29:12.986Z,12.12
2023-10-22T05:31:45.034Z,12.23
2023-10-22T05:34:14.380Z,12.21
2023-10-22T05:36:44.144Z,12.03
2023-10-22T05:39:13.435Z,11.98
2023-10-22T05:41:42.550Z,11.96
2023-10-22T05:44:12.176Z,12.08
2023-10-22T05:46:45.114Z,12.18
2023-10-22T05:49:17.535Z,12.29
2023-10-22T05:51:46.878Z,12.01
2023-10-22T05:54:15.954Z,12.01
2023-10-22T05:56:47.527Z,11.98
2023-10-22T05:59:16.575Z,12.07
2023-10-22T06:01:45.701Z,12.18
2023-10-22T06:04:14.833Z,12.21
2023-10-22T06:06:47.134Z,12.12
2023-10-22T06:09:16.316Z,12.23
2023-10-22T06:11:45.394Z,12.41
2023-10-22T06:14:17.320Z,12.38
2023-10-22T06:16:46.909Z,12.43
2023-10-22T06:19:18.782Z,12.60
2023-10-22T06:21:48.800Z,12.54
2023-10-22T06:24:19.307Z,12.30
2023-10-22T06:26:48.413Z,12.38
2023-10-22T06:29:17.416Z,12.32
2023-10-22T06:31:46.407Z,12.23
2023-10-22T06:34:15.520Z,12.22
2023-10-22T06:36:45.600Z,12.41
2023-10-22T06:39:14.960Z,12.28
2023-10-22T06:41:44.083Z,12.36
2023-10-22T06:44:13.731Z,12.20
2023-10-22T06:46:42.991Z,12.36
2023-10-22T06:49:18.220Z,12.30
2023-10-22T06:51:47.415Z,12.10
2023-10-22T06:54:16.731Z,12.32
2023-10-22T06:56:45.861Z,12.38
2023-10-22T06:59:14.806Z,12.32
2023-10-22T07:01:43.867Z,12.42
2023-10-22T07:04:14.649Z,12.39
2023-10-22T07:06:43.677Z,12.27
2023-10-22T07:09:15.501Z,12.32
2023-10-22T07:11:45.601Z,12.31
2023-10-22T07:14:20.008Z,12.17
2023-10-22T07:16:49.481Z,12.19
2023-10-22T07:19:18.494Z,12.28
2023-10-22T07:21:47.836Z,12.19
2023-10-22T07:24:18.069Z,12.20
2023-10-22T07:26:50.248Z,12.16
2023-10-22T07:29:19.298Z,12.21
2023-10-22T07:31:50.422Z,12.08
2023-10-22T07:34:19.672Z,11.91
2023-10-22T07:36:48.750Z,11.85
2023-10-22T07:39:17.860Z,11.94
2023-10-22T07:41:46.851Z,11.97
2023-10-22T07:44:18.962Z,12.09
2023-10-22T07:46:48.167Z,12.08
2023-10-22T07:49:17.234Z,12.03
2023-10-22T07:51:46.427Z,11.99
2023-10-22T07:54:15.652Z,12.04
2023-10-22T07:56:45.260Z,12.07
2023-10-22T07:59:24.393Z,12.11
2023-10-22T08:01:53.525Z,12.03
2023-10-22T08:04:23.254Z,12.23
2023-10-22T08:06:53.777Z,12.21
2023-10-22T08:09:23.005Z,12.13
2023-10-22T08:11:52.162Z,12.17
2023-10-22T08:14:24.536Z,12.65
2023-10-22T08:16:53.692Z,12.59
2023-10-22T08:19:22.797Z,12.55
2023-10-22T08:21:51.869Z,12.54
2023-10-22T08:24:20.998Z,12.29
2023-10-22T08:26:50.118Z,12.16
2023-10-22T08:29:19.036Z,12.28
2023-10-22T08:31:48.121Z,12.25
2023-10-22T08:34:17.184Z,12.52
2023-10-22T08:36:46.207Z,12.19
2023-10-22T08:39:15.175Z,11.95
2023-10-22T08:41:57.934Z,11.87
2023-10-22T08:44:32.006Z,11.82
2023-10-22T08:47:01.041Z,11.97
2023-10-22T08:49:36.753Z,11.91
2023-10-22T08:52:06.166Z,11.81
2023-10-22T08:54:38.426Z,11.75
2023-10-22T08:57:08.148Z,11.77
2023-10-22T08:59:38.202Z,11.72
2023-10-22T09:02:12.087Z,11.76
2023-10-22T09:04:44.731Z,11.92
2023-10-22T09:07:14.005Z,11.95
2023-10-22T09:09:45.814Z,11.99
2023-10-22T09:12:16.068Z,12.09
2023-10-22T09:14:46.219Z,12.06
2023-10-22T09:17:21.993Z,11.99
2023-10-22T09:19:51.347Z,11.85
2023-10-22T09:22:28.107Z,11.79
2023-10-22T09:24:59.045Z,11.66
2023-10-22T09:27:30.161Z,11.66
2023-10-22T09:30:05.324Z,11.74
2023-10-22T09:32:34.694Z,11.82
2023-10-22T09:35:24.499Z,11.86
2023-10-22T09:37:55.191Z,11.74
2023-10-22T09:40:24.855Z,11.64
2023-10-22T09:42:54.305Z,11.58
2023-10-22T09:45:28.032Z,11.66
2023-10-22T09:48:11.305Z,11.70
2023-10-22T09:50:49.947Z,11.67
2023-10-22T09:53:22.317Z,11.72
2023-10-22T09:55:52.403Z,11.83
2023-10-22T09:58:33.149Z,11.67
2023-10-22T10:01:04.400Z,11.63
2023-10-22T10:03:34.431Z,11.71
2023-10-22T10:06:05.436Z,11.73
2023-10-22T10:08:39.818Z,11.66
2023-10-22T10:11:15.296Z,11.67
2023-10-22T10:13:44.985Z,11.76
2023-10-22T10:16:15.820Z,11.65
2023-10-22T10:19:05.719Z,11.62
2023-10-22T10:21:47.610Z,11.75
2023-10-22T10:24:17.164Z,11.60
2023-10-22T10:26:52.186Z,11.58
2023-10-22T10:29:24.212Z,11.82
2023-10-22T10:31:54.931Z,11.79
2023-10-22T10:34:46.625Z,11.67
2023-10-22T10:37:18.440Z,11.74
2023-10-22T10:39:51.882Z,11.60
2023-10-22T10:42:32.853Z,11.70
2023-10-22T10:45:04.827Z,11.93
2023-10-22T10:47:39.528Z,11.85
2023-10-22T10:50:14.097Z,11.95
2023-10-22T10:52:58.733Z,11.92
2023-10-22T10:55:34.640Z,11.88
2023-10-22T10:58:07.474Z,11.97
2023-10-22T11:00:42.640Z,11.96
2023-10-22T11:03:26.488Z,11.85
2023-10-22T11:05:55.757Z,11.83
2023-10-22T11:08:24.752Z,11.83
2023-10-22T11:10:53.864Z,11.80
2023-10-22T11:13:31.579Z,11.77
2023-10-22T11:16:09.107Z,11.74
2023-10-22T11:18:58.756Z,11.84
2023-10-22T11:21:31.027Z,11.83
2023-10-22T11:24:00.108Z,11.80
2023-10-22T11:26:30.614Z,11.69
2023-10-22T11:29:00.551Z,11.57
2023-10-22T11:31:29.528Z,11.74
2023-10-22T11:34:13.721Z,11.74
2023-10-22T11:36:42.786Z,11.52
2023-10-22T11:39:34.582Z,11.63
2023-10-22T11:42:09.738Z,11.79
2023-10-22T11:44:39.480Z,11.76
2023-10-22T11:47:35.627Z,11.68
2023-10-22T11:50:06.646Z,11.67
2023-10-22T11:52:42.858Z,11.65
2023-10-22T11:55:24.617Z,11.69
2023-10-22T11:58:01.180Z,11.58
2023-10-22T12:00:30.531Z,11.44
2023-10-22T12:02:59.753Z,11.63
2023-10-22T12:05:29.568Z,11.67
2023-10-22T12:07:58.709Z,11.67
2023-10-22T12:10:29.966Z,11.78
2023-10-22T12:12:59.633Z,11.86
2023-10-22T12:15:35.884Z,11.86
2023-10-22T12:18:07.339Z,11.83
2023-10-22T12:20:36.734Z,11.74
2023-10-22T12:23:05.790Z,11.77
2023-10-22T12:25:37.510Z,11.94
2023-10-22T12:28:08.760Z,11.91
2023-10-22T12:30:38.549Z,11.84
2023-10-22T12:33:13.285Z,11.66
2023-10-22T12:35:42.494Z,11.46
2023-10-22T12:38:11.518Z,11.45
2023-10-22T12:40:40.709Z,11.49
2023-10-22T12:43:10.442Z,11.63
2023-10-22T12:45:43.232Z,11.68
2023-10-22T12:48:12.462Z,11.74
2023-10-22T12:50:50.032Z,11.62
2023-10-22T12:53:19.258Z,11.61
2023-10-22T12:55:59.661Z,11.70
2023-10-22T12:58:30.406Z,11.79
2023-10-22T13:01:01.137Z,11.84
2023-10-22T13:03:39.672Z,11.64
2023-10-22T13:06:13.258Z,11.59
2023-10-22T13:08:45.086Z,11.62
2023-10-22T13:11:19.131Z,11.59
2023-10-22T13:13:51.185Z,11.54
2023-10-22T13:16:21.960Z,11.45
2023-10-22T13:18:51.507Z,11.50
2023-10-22T13:21:20.953Z,11.51
2023-10-22T13:23:50.105Z,11.54
2023-10-22T13:26:20.195Z,11.56
2023-10-22T13:28:49.702Z,11.52
2023-10-22T13:31:18.842Z,11.57
2023-10-22T13:33:53.077Z,11.58
2023-10-22T13:36:22.188Z,11.57
2023-10-22T13:38:54.310Z,11.55
2023-10-22T13:41:23.599Z,11.55
2023-10-22T13:44:01.475Z,11.63
2023-10-22T13:46:31.268Z,11.47
2023-10-22T13:49:05.726Z,11.51
2023-10-22T13:51:35.148Z,11.53
2023-10-22T13:54:04.326Z,11.59
2023-10-22T13:56:33.372Z,11.53
2023-10-22T13:59:02.462Z,11.60
2023-10-22T14:01:31.606Z,11.82
2023-10-22T14:04:04.036Z,11.67
2023-10-22T14:06:33.297Z,11.66
2023-10-22T14:09:02.409Z,11.60
2023-10-22T14:11:31.512Z,11.44
2023-10-22T14:14:00.758Z,11.69
2023-10-22T14:16:29.908Z,11.56
2023-10-22T14:18:59.121Z,11.63
2023-10-22T14:21:28.241Z,11.55
2023-10-22T14:23:57.460Z,11.55
2023-10-22T14:26:26.584Z,11.52
2023-10-22T14:28:55.796Z,11.52
2023-10-22T14:31:24.911Z,11.57
2023-10-22T14:33:54.201Z,11.52
2023-10-22T14:36:23.209Z,11.42
2023-10-22T14:38:52.376Z,11.42
2023-10-22T14:41:34.709Z,11.50
2023-10-22T14:44:52.989Z,11.59
2023-10-22T14:47:22.480Z,11.66
2023-10-22T14:49:51.542Z,11.57
2023-10-22T14:52:24.024Z,11.59
2023-10-22T14:54:53.149Z,11.52
2023-10-22T14:57:22.174Z,11.47
2023-10-22T14:59:52.409Z,11.37
2023-10-22T15:02:21.441Z,11.45
2023-10-22T15:04:50.655Z,11.41
2023-10-22T15:07:21.277Z,11.52
2023-10-22T15:10:08.786Z,11.59
2023-10-22T15:12:40.979Z,11.68
2023-10-22T15:15:13.329Z,11.71
2023-10-22T15:17:44.051Z,11.71
2023-10-22T15:20:15.771Z,11.68
2023-10-22T15:22:46.017Z,11.64
2023-10-22T15:27:46.515Z,12.02
2023-10-22T15:30:16.592Z,11.89
2023-10-22T15:32:46.082Z,11.77
2023-10-22T15:35:15.631Z,11.76
2023-10-22T15:37:44.909Z,11.84
2023-10-22T15:40:14.960Z,11.86
2023-10-22T15:42:47.270Z,11.90
2023-10-22T15:45:16.498Z,11.90
2023-10-22T15:47:45.629Z,11.89
2023-10-22T15:50:17.159Z,11.86
2023-10-22T15:52:53.568Z,11.79
2023-10-22T15:55:29.393Z,11.90
2023-10-22T15:58:02.001Z,11.89
2023-10-22T16:00:36.613Z,11.89
2023-10-22T16:03:18.712Z,12.07
2023-10-22T16:06:00.191Z,11.83
2023-10-22T16:08:29.894Z,11.82
2023-10-22T16:11:05.874Z,11.94
2023-10-22T16:13:38.032Z,11.75
2023-10-22T16:16:18.627Z,12.12
2023-10-22T16:18:48.215Z,11.86
2023-10-22T16:21:17.477Z,12.14
2023-10-22T16:23:51.696Z,12.10
2023-10-22T16:26:24.631Z,12.20
2023-10-22T16:29:11.872Z,12.17
2023-10-22T16:31:45.953Z,12.09
2023-10-22T16:34:15.086Z,12.21
2023-10-22T16:36:45.853Z,12.28
2023-10-22T16:39:15.071Z,12.22
2023-10-22T16:41:44.555Z,12.38
2023-10-22T16:44:14.242Z,12.46
2023-10-22T16:46:43.387Z,12.54
2023-10-22T16:49:14.031Z,12.53
2023-10-22T16:51:43.064Z,12.54
2023-10-22T16:54:16.099Z,12.46
2023-10-22T16:56:47.008Z,12.44
2023-10-22T16:59:19.380Z,12.43
2023-10-22T17:01:48.525Z,12.43
2023-10-22T17:04:17.494Z,12.40
2023-10-22T17:06:46.652Z,12.44
2023-10-22T17:09:15.690Z,12.43
2023-10-22T17:11:44.947Z,12.37
2023-10-22T17:14:25.740Z,12.47
2023-10-22T17:17:02.445Z,12.53
2023-10-22T17:19:36.215Z,12.37
2023-10-22T17:22:14.346Z,12.26
2023-10-22T17:24:59.633Z,12.39
2023-10-22T17:27:29.062Z,12.18
2023-10-22T17:29:58.303Z,12.11
2023-10-22T17:32:27.289Z,12.10
2023-10-22T17:34:57.845Z,12.31
2023-10-22T17:37:27.028Z,12.22
2023-10-22T17:39:58.217Z,12.33
2023-10-22T17:42:30.355Z,11.92
2023-10-22T17:44:59.448Z,11.85
2023-10-22T17:47:28.902Z,11.77
2023-10-22T17:49:58.290Z,11.74
2023-10-22T17:52:27.269Z,11.78
2023-10-22T17:54:56.620Z,11.90
2023-10-22T17:57:25.660Z,12.03
2023-10-22T17:59:58.029Z,12.04
2023-10-22T18:02:27.435Z,12.04
2023-10-22T18:04:56.399Z,12.09
2023-10-22T18:07:25.404Z,12.03
2023-10-22T18:09:55.038Z,11.89
2023-10-22T18:12:27.081Z,12.12
2023-10-22T18:14:57.196Z,12.24
2023-10-22T18:17:26.261Z,12.08
2023-10-22T18:20:01.177Z,12.14
2023-10-22T18:22:30.951Z,12.38
2023-10-22T18:25:00.248Z,12.48
2023-10-22T18:27:30.099Z,12.33
2023-10-22T18:30:01.010Z,12.28
2023-10-22T18:32:30.721Z,11.93
2023-10-22T18:35:23.269Z,11.75
2023-10-22T18:38:05.977Z,11.85
2023-10-22T18:40:36.380Z,12.04
2023-10-22T18:43:10.738Z,11.77
2023-10-22T18:45:45.777Z,11.74
2023-10-22T18:48:16.288Z,11.75
2023-10-22T18:50:45.497Z,11.98
2023-10-22T18:53:16.983Z,12.06
2023-10-22T18:56:05.003Z,12.07
2023-10-22T18:58:37.607Z,12.35
2023-10-22T19:01:19.127Z,11.99
2023-10-22T19:03:48.666Z,11.89
2023-10-22T19:06:28.054Z,11.97
2023-10-22T19:09:06.598Z,11.97
2023-10-22T19:11:41.016Z,12.19
2023-10-22T19:14:12.796Z,12.13
2023-10-22T19:16:42.527Z,12.06
2023-10-22T19:19:11.781Z,12.10
2023-10-22T19:21:44.075Z,12.04
2023-10-22T19:24:13.223Z,11.92
2023-10-22T19:26:42.259Z,11.99
2023-10-22T19:29:12.601Z,12.24
2023-10-22T19:31:44.324Z,12.06
2023-10-22T19:34:16.388Z,12.04
2023-10-22T19:36:45.604Z,12.23
2023-10-22T19:39:14.761Z,12.25
2023-10-22T19:41:46.251Z,12.22
2023-10-22T19:44:16.569Z,12.67
2023-10-22T19:46:49.399Z,12.30
2023-10-22T19:49:18.680Z,12.27
2023-10-22T19:51:56.265Z,12.49
2023-10-22T19:54:28.655Z,12.87
2023-10-22T19:57:14.782Z,12.95
2023-10-22T19:59:55.723Z,12.61
2023-10-22T20:02:28.013Z,12.82
2023-10-22T20:04:57.641Z,12.95
2023-10-22T20:07:26.942Z,12.68
2023-10-22T20:09:59.342Z,12.40
2023-10-22T20:12:28.774Z,12.47
2023-10-22T20:14:58.439Z,12.45
2023-10-22T20:17:28.004Z,12.93
2023-10-22T20:19:57.150Z,12.64
2023-10-22T20:22:26.236Z,12.94
2023-10-22T20:24:55.407Z,12.60
2023-10-22T20:27:24.449Z,12.97
2023-10-22T20:29:53.598Z,13.01
2023-10-22T20:32:22.785Z,13.08
2023-10-22T20:34:54.526Z,13.02
2023-10-22T20:37:32.006Z,12.99
2023-10-22T20:40:01.509Z,13.07
2023-10-22T20:42:33.399Z,13.06
2023-10-22T20:45:05.530Z,13.13
2023-10-22T20:47:34.708Z,13.03
2023-10-22T20:50:05.825Z,13.03
2023-10-22T20:52:35.174Z,13.06
2023-10-22T20:55:11.538Z,13.11
2023-10-22T20:57:41.109Z,13.14
2023-10-22T21:00:10.772Z,13.11
2023-10-22T21:02:40.168Z,13.12
2023-10-22T21:05:10.874Z,12.99
2023-10-22T21:07:40.428Z,12.58
2023-10-22T21:10:10.341Z,12.44
2023-10-22T21:12:39.533Z,12.38
2023-10-22T21:15:10.146Z,12.27
2023-10-22T21:17:40.923Z,12.24
2023-10-22T21:20:12.218Z,12.23
2023-10-22T21:22:41.423Z,12.37
2023-10-22T21:25:11.922Z,12.56
2023-10-22T21:27:42.307Z,12.56
2023-10-22T21:30:24.974Z,12.56
2023-10-22T21:32:54.450Z,12.63
2023-10-22T21:35:23.676Z,12.52
2023-10-22T21:37:53.910Z,12.57
2023-10-22T21:40:23.132Z,12.40
2023-10-22T21:42:55.973Z,12.36
2023-10-22T21:45:47.540Z,12.52
2023-10-22T21:48:25.613Z,12.71
2023-10-22T21:50:57.296Z,12.86
2023-10-22T21:53:27.770Z,12.82
2023-10-22T21:56:00.163Z,12.62
2023-10-22T21:58:29.820Z,12.52
2023-10-22T22:01:02.239Z,12.77
2023-10-22T22:03:32.464Z,12.87
2023-10-22T22:06:01.861Z,12.86
2023-10-22T22:08:34.347Z,12.98
2023-10-22T22:11:07.243Z,13.08
2023-10-22T22:13:37.611Z,13.09
2023-10-22T22:16:09.141Z,13.04
2023-10-22T22:18:38.485Z,13.04
2023-10-22T22:21:07.713Z,13.15
2023-10-22T22:23:37.396Z,13.04
2023-10-22T22:26:06.438Z,13.37
2023-10-22T22:28:35.461Z,13.52
2023-10-22T22:31:04.783Z,13.38
2023-10-22T22:33:33.967Z,13.37
2023-10-22T22:36:06.329Z,13.52
2023-10-22T22:38:35.713Z,13.43
2023-10-22T22:41:04.666Z,13.46
2023-10-22T22:43:34.778Z,13.45
2023-10-22T22:46:03.901Z,13.41
2023-10-22T22:48:33.311Z,13.38
2023-10-22T22:51:04.564Z,13.43
2023-10-22T22:53:34.776Z,13.64
2023-10-22T22:56:19.204Z,13.60
2023-10-22T22:58:49.792Z,13.38
2023-10-22T23:01:23.326Z,13.42
2023-10-22T23:03:52.657Z,13.42
2023-10-22T23:06:22.242Z,13.42
2023-10-22T23:08:54.170Z,13.35
2023-10-22T23:11:23.878Z,13.33
2023-10-22T23:13:52.895Z,13.44
2023-10-22T23:16:27.388Z,13.62
2023-10-22T23:18:56.693Z,13.62
2023-10-22T23:21:27.997Z,13.37
2023-10-22T23:26:48.446Z,13.43
2023-10-22T23:29:23.223Z,13.53
2023-10-22T23:31:53.864Z,13.50
2023-10-22T23:34:22.998Z,13.48
2023-10-22T23:36:57.580Z,13.43
2023-10-22T23:40:31.471Z,13.46
2023-10-22T23:43:23.279Z,13.44
2023-10-22T23:45:53.113Z,13.39
2023-10-22T23:48:27.028Z,13.38
2023-10-22T23:55:33.149Z,13.25
2023-10-22T23:58:07.372Z,13.22
